Time;durP1;ratioP1;P1;durP2;ratioP2;P2;SDS_P1;SDS_P2;PMS_P1;PMS_P2;Temp;Humidity;BMP_temperature;BMP_pressure;BME280_temperature;BME280_humidity;BME280_pressure;Samples;Min_cycle;Max_cycle;Signal;HPM_P1;HPM_P2
2023/05/28 00:00:56;;;;;;;4.27;2.13;;;;;;;11.99;55.35;101765.53;15550607;28;20053;-50
2023/05/28 00:08:29;;;;;;;1.77;1.17;;;;;;;11.86;56.16;101768.13;15562818;28;20135;-49
2023/05/28 00:16:07;;;;;;;8.55;2.83;;;;;;;11.97;55.84;101767.59;15552885;28;20391;-51
2023/05/28 00:23:40;;;;;;;1.40;0.93;;;;;;;11.67;56.99;101758.81;15561947;28;20052;-50
2023/05/28 00:31:16;;;;;;;1.75;1.17;;;;;;;11.61;57.16;101760.41;15560692;28;20050;-50
2023/05/28 00:38:50;;;;;;;0.70;0.57;;;;;;;11.50;57.29;101752.84;15529887;28;20038;-50
2023/05/28 00:46:25;;;;;;;0.80;0.60;;;;;;;11.41;57.44;101748.59;15552473;28;20076;-52
2023/05/28 00:53:58;;;;;;;3.60;1.40;;;;;;;11.33;57.88;101746.91;15539333;28;20050;-53
2023/05/28 01:01:50;;;;;;;1.25;0.73;;;;;;;11.21;57.75;101746.53;15553205;28;20041;-48
2023/05/28 01:09:23;;;;;;;4.95;1.52;;;;;;;10.98;58.49;101745.84;15543106;28;20264;-48
2023/05/28 01:16:58;;;;;;;3.40;1.50;;;;;;;10.97;59.01;101742.34;15552474;28;20580;-49
2023/05/28 01:24:36;;;;;;;3.83;1.65;;;;;;;10.78;59.67;101734.03;15547874;28;20533;-49
2023/05/28 01:32:10;;;;;;;2.38;0.85;;;;;;;10.83;59.39;101739.69;15553497;28;20050;-47
2023/05/28 01:39:46;;;;;;;2.77;1.27;;;;;;;10.72;59.60;101740.97;15546530;28;20505;-51
2023/05/28 01:47:20;;;;;;;1.30;0.70;;;;;;;10.67;59.52;101736.16;15542986;28;20541;-50
2023/05/28 01:54:58;;;;;;;1.38;0.80;;;;;;;10.45;60.40;101737.13;15534017;28;20076;-51
2023/05/28 02:02:31;;;;;;;3.03;1.38;;;;;;;10.40;60.85;101731.47;15529033;28;20053;-50
2023/05/28 02:10:07;;;;;;;2.60;1.20;;;;;;;10.31;61.17;101730.72;15550624;28;20057;-51
2023/05/28 02:17:41;;;;;;;1.27;1.05;;;;;;;10.00;60.87;101671.00;15559965;28;20060;-50
2023/05/28 02:25:16;;;;;;;11.77;1.30;;;;;;;10.19;61.22;101716.06;15555093;28;20046;-48
2023/05/28 02:32:49;;;;;;;4.15;1.23;;;;;;;9.95;61.96;101727.84;15556085;28;20042;-50
2023/05/28 02:40:24;;;;;;;2.53;1.13;;;;;;;9.90;61.91;101727.56;15538787;28;20560;-49
2023/05/28 02:47:59;;;;;;;0.73;0.65;;;;;;;9.65;62.68;101724.25;15528921;28;20100;-49
2023/05/28 02:55:33;;;;;;;0.98;0.88;;;;;;;9.73;62.41;101726.03;15546728;28;20046;-53
2023/05/28 03:03:08;;;;;;;2.55;0.88;;;;;;;9.68;62.83;101734.63;15541077;28;20094;-51
2023/05/28 03:10:44;;;;;;;1.83;1.23;;;;;;;9.71;62.95;101731.59;15544169;28;20137;-48
2023/05/28 03:18:17;;;;;;;1.98;1.05;;;;;;;9.68;63.23;101724.72;15562264;28;20088;-49
2023/05/28 03:25:55;;;;;;;1.92;1.15;;;;;;;9.45;63.80;101730.09;15550992;28;20092;-47
2023/05/28 03:33:29;;;;;;;0.68;0.57;;;;;;;9.56;63.48;101719.97;15552564;28;20540;-47
2023/05/28 03:41:04;;;;;;;1.08;0.98;;;;;;;9.66;63.01;101718.72;15546442;28;20045;-50
2023/05/28 03:48:42;;;;;;;2.30;1.05;;;;;;;9.77;62.65;101719.31;15541888;28;20058;-49
2023/05/28 03:56:19;;;;;;;1.80;0.80;;;;;;;9.84;63.25;101718.41;15532527;28;20127;-48
2023/05/28 04:03:55;;;;;;;2.67;1.48;;;;;;;10.13;62.60;101716.78;15545173;28;20064;-45
2023/05/28 04:11:30;;;;;;;1.65;0.85;;;;;;;10.30;62.68;101715.63;15561121;28;20077;-50
2023/05/28 04:19:04;;;;;;;4.57;1.38;;;;;;;10.57;62.97;101718.69;15522027;28;20046;-49
2023/05/28 04:26:38;;;;;;;5.55;0.57;;;;;;;11.00;62.43;101719.63;15536344;28;20030;-48
2023/05/28 04:34:11;;;;;;;1.67;0.52;;;;;;;11.46;61.71;101727.34;15540393;28;20050;-53
2023/05/28 04:41:46;;;;;;;;;;;;;;;11.62;61.65;101727.13;15543640;28;20069;-50
2023/05/28 04:49:21;;;;;;;2.15;1.33;;;;;;;11.91;60.98;101719.94;15563880;28;19921;-48
2023/05/28 04:56:55;;;;;;;1.55;1.40;;;;;;;12.56;59.56;101721.41;15553022;28;20073;-51
2023/05/28 05:04:31;;;;;;;3.85;1.50;;;;;;;12.76;58.57;101724.19;15550273;28;20100;-49
2023/05/28 05:12:07;;;;;;;2.65;1.52;;;;;;;13.34;57.51;101726.50;15549992;28;20062;-44
2023/05/28 05:19:40;;;;;;;2.50;1.17;;;;;;;13.75;56.99;101727.13;15540741;28;20511;-47
2023/05/28 05:27:15;;;;;;;1.65;1.02;;;;;;;14.21;53.63;101720.88;15545323;28;20041;-49
2023/05/28 05:34:48;;;;;;;1.00;0.70;;;;;;;14.70;52.21;101724.97;15554872;28;20066;-51
2023/05/28 05:42:43;;;;;;;1.17;0.70;;;;;;;14.76;51.55;101721.41;15547912;28;20111;-48
2023/05/28 05:50:21;;;;;;;1.13;0.75;;;;;;;15.91;48.29;101721.34;15527071;28;20549;-52
2023/05/28 05:58:05;;;;;;;1.33;0.88;;;;;;;16.24;47.90;101729.16;15547742;28;20041;-53
2023/05/28 06:05:39;;;;;;;5.68;0.95;;;;;;;17.29;46.16;101719.97;15554997;28;20063;-47
2023/05/28 06:13:33;;;;;;;6.28;0.98;;;;;;;18.35;44.50;101721.81;15554730;28;20406;-49
2023/05/28 06:21:09;;;;;;;1.55;1.25;;;;;;;19.01;42.34;101725.09;15560218;28;20052;-51
2023/05/28 06:29:13;;;;;;;;;;;;;;;;;;;;;
2023/05/28 06:36:56;;;;;;;0.82;0.45;;;;;;;19.50;38.00;101717.31;15560401;28;20052;-47
2023/05/28 06:44:31;;;;;;;1.85;0.63;;;;;;;20.34;35.41;101711.00;15547219;28;20034;-51
2023/05/28 06:52:10;;;;;;;2.30;1.10;;;;;;;19.80;34.10;101697.13;15531502;28;20431;-50
2023/05/28 06:59:44;;;;;;;;;;;;;;;20.42;33.50;101720.63;15548537;28;20046;-49
2023/05/28 07:07:38;;;;;;;2.40;0.50;;;;;;;20.94;29.98;101704.69;15543600;28;19928;-48
2023/05/28 07:15:15;;;;;;;1.08;0.73;;;;;;;20.44;30.81;101702.97;15522569;28;20065;-48
2023/05/28 07:22:48;;;;;;;1.00;0.40;;;;;;;22.63;29.35;101699.47;15556030;28;20042;-47
2023/05/28 07:30:24;;;;;;;0.52;0.20;;;;;;;22.52;29.03;101696.94;15536709;28;20049;-47
2023/05/28 07:37:59;;;;;;;0.82;0.47;;;;;;;23.39;25.72;101696.13;15544484;28;20038;-49
2023/05/28 07:45:34;;;;;;;0.68;0.40;;;;;;;23.86;26.41;101702.44;15529588;28;20057;-52
2023/05/28 07:53:08;;;;;;;1.42;0.77;;;;;;;23.87;27.16;101693.94;15525699;28;20084;-48
2023/05/28 08:00:42;;;;;;;1.60;0.55;;;;;;;23.51;27.53;101695.03;15541833;28;20539;-52
2023/05/28 08:08:15;;;;;;;2.20;0.70;;;;;;;23.66;27.63;101678.63;15540409;28;20081;-47
2023/05/28 08:15:51;;;;;;;1.05;0.47;;;;;;;23.26;26.03;101677.47;15545377;28;20045;-50
2023/05/28 08:23:26;;;;;;;1.33;0.40;;;;;;;23.50;25.89;101668.72;15563002;28;20045;-48
2023/05/28 08:31:02;;;;;;;1.15;0.50;;;;;;;24.03;25.02;101670.06;15575385;28;20391;-49
2023/05/28 08:38:53;;;;;;;0.88;0.60;;;;;;;23.97;25.18;101671.19;15559548;28;20053;-47
2023/05/28 08:46:31;;;;;;;0.22;0.20;;;;;;;24.02;25.92;101673.91;15551649;28;20058;-47
2023/05/28 08:54:22;;;;;;;3.80;0.60;;;;;;;23.99;24.03;101666.22;15575482;28;20037;-49
2023/05/28 09:01:57;;;;;;;0.40;0.30;;;;;;;24.90;23.29;101654.06;15559151;28;20056;-50
2023/05/28 09:09:31;;;;;;;1.02;0.45;;;;;;;24.99;24.06;101657.00;15537875;28;20046;-44
2023/05/28 09:17:05;;;;;;;0.98;0.55;;;;;;;25.45;25.28;101648.47;15526361;28;20049;-47
2023/05/28 09:24:38;;;;;;;0.90;0.40;;;;;;;25.32;23.30;101647.22;15566854;28;20096;-52
2023/05/28 09:32:39;;;;;;;1.60;0.40;;;;;;;25.02;27.09;101631.72;15552114;28;20057;-47
2023/05/28 09:40:12;;;;;;;3.72;0.52;;;;;;;25.22;23.99;101633.53;15556855;28;20050;-46
2023/05/28 09:47:46;;;;;;;2.88;0.40;;;;;;;25.42;23.87;101625.13;15546816;28;20042;-47
2023/05/28 09:55:20;;;;;;;3.30;0.45;;;;;;;25.92;23.21;101617.50;15552796;28;20049;-46
2023/05/28 10:03:14;;;;;;;7.38;0.68;;;;;;;25.86;22.54;101607.66;15535633;28;20060;-44
2023/05/28 10:10:52;;;;;;;0.85;0.25;;;;;;;26.91;23.21;101611.28;15545633;28;20045;-45
2023/05/28 10:18:27;;;;;;;3.60;0.85;;;;;;;25.77;20.50;101606.66;15544833;28;20053;-46
2023/05/28 10:26:00;;;;;;;1.63;0.68;;;;;;;26.58;19.49;101599.38;15554761;28;20053;-46
2023/05/28 10:33:39;;;;;;;1.25;0.73;;;;;;;26.49;21.66;101605.81;15539141;28;20046;-44
2023/05/28 10:41:12;;;;;;;1.30;0.47;;;;;;;27.38;20.53;101598.41;15530100;28;20061;-49
2023/05/28 10:49:12;;;;;;;3.95;0.88;;;;;;;26.78;19.10;101601.00;15543544;28;20499;-50
2023/05/28 10:57:10;;;;;;;0.80;0.50;;;;;;;26.70;20.84;101596.97;15526376;28;20102;-46
2023/05/28 11:04:51;;;;;;;0.83;0.50;;;;;;;27.26;20.28;101592.53;15509970;28;20520;-49
2023/05/28 11:12:26;;;;;;;1.17;0.40;;;;;;;26.99;19.53;101589.66;15510824;28;20497;-50
2023/05/28 11:20:00;;;;;;;2.47;0.77;;;;;;;27.90;19.85;101590.00;15502515;28;20042;-47
2023/05/28 11:27:35;;;;;;;1.00;0.45;;;;;;;27.58;20.67;101585.34;15540466;28;20054;-48
2023/05/28 11:35:11;;;;;;;0.60;0.38;;;;;;;28.70;19.83;101591.34;15538056;28;20042;-47
2023/05/28 11:42:46;;;;;;;1.60;0.63;;;;;;;28.57;18.60;101578.38;15544118;28;20048;-52
2023/05/28 11:50:22;;;;;;;1.13;0.60;;;;;;;28.70;20.08;101567.28;15544643;28;20038;-52
2023/05/28 11:57:55;;;;;;;0.88;0.38;;;;;;;28.98;19.00;101545.09;15537471;28;20115;-47
2023/05/28 12:05:37;;;;;;;2.58;0.70;;;;;;;29.87;19.68;101529.41;15544851;28;20054;-50
2023/05/28 12:13:13;;;;;;;3.92;1.17;;;;;;;28.68;18.87;101528.13;15551701;28;20483;-50
2023/05/28 12:20:47;;;;;;;0.73;0.30;;;;;;;30.26;17.67;101525.75;15547311;28;20046;-51
2023/05/28 12:28:22;;;;;;;0.55;0.50;;;;;;;30.54;17.74;101517.13;15548786;28;20061;-52
2023/05/28 12:35:59;;;;;;;2.33;0.52;;;;;;;30.17;17.23;101505.56;15539473;28;20131;-47
2023/05/28 12:43:32;;;;;;;3.72;0.60;;;;;;;29.94;17.74;101502.91;15554574;28;20061;-48
2023/05/28 12:51:06;;;;;;;0.28;0.20;;;;;;;30.27;18.07;101507.22;15557349;28;20050;-49
2023/05/28 12:58:39;;;;;;;1.85;0.65;;;;;;;28.44;16.92;101508.25;15569998;28;20053;-48
2023/05/28 13:06:13;;;;;;;2.85;0.50;;;;;;;29.14;19.53;101501.28;15549373;28;20053;-48
2023/05/28 13:13:46;;;;;;;0.20;0.13;;;;;;;28.06;17.96;101497.47;15559080;28;20077;-47
2023/05/28 13:21:21;;;;;;;0.90;0.55;;;;;;;27.48;18.98;101497.31;15554168;28;20068;-50
2023/05/28 13:28:54;;;;;;;1.13;0.60;;;;;;;28.03;18.90;101478.00;15567863;28;20041;-49
2023/05/28 13:36:30;;;;;;;2.47;0.80;;;;;;;28.07;20.20;101470.69;15556574;28;20503;-45
2023/05/28 13:44:03;;;;;;;2.03;0.40;;;;;;;27.27;20.11;101470.13;15556930;28;20050;-47
2023/05/28 13:51:39;;;;;;;1.95;0.75;;;;;;;27.13;19.61;101461.03;15539498;28;20053;-46
2023/05/28 13:59:12;;;;;;;2.40;0.77;;;;;;;26.26;20.93;101454.19;15546279;28;20129;-49
2023/05/28 14:06:46;;;;;;;2.13;0.77;;;;;;;25.36;21.83;101455.88;15538397;28;20464;-48
2023/05/28 14:14:19;;;;;;;0.98;0.63;;;;;;;25.20;21.72;101446.16;15551607;28;20050;-48
2023/05/28 14:21:53;;;;;;;0.68;0.50;;;;;;;25.55;22.38;101439.41;15548537;28;20049;-52
2023/05/28 14:29:26;;;;;;;3.30;0.50;;;;;;;25.32;21.10;101437.50;15556014;28;20054;-49
2023/05/28 14:37:00;;;;;;;1.30;0.70;;;;;;;25.31;21.77;101424.88;15549424;28;20135;-53
2023/05/28 14:44:32;;;;;;;1.90;0.73;;;;;;;24.72;22.08;101423.28;15557430;28;20502;-50
2023/05/28 14:52:26;;;;;;;2.40;0.68;;;;;;;24.64;21.75;101413.72;15537505;28;20037;-48
2023/05/28 15:00:04;;;;;;;0.30;0.30;;;;;;;24.85;21.65;101412.41;15546084;28;20038;-50
2023/05/28 15:07:38;;;;;;;1.98;0.55;;;;;;;25.04;21.70;101414.44;15545389;28;20052;-51
2023/05/28 15:15:14;;;;;;;1.42;0.50;;;;;;;25.34;22.11;101422.38;15549959;28;20056;-49
2023/05/28 15:22:49;;;;;;;2.70;0.80;;;;;;;24.65;21.42;101407.13;15542163;28;20495;-47
2023/05/28 15:30:23;;;;;;;2.33;0.40;;;;;;;25.47;22.34;101406.28;15522747;28;20108;-47
2023/05/28 15:37:57;;;;;;;1.70;0.65;;;;;;;25.31;22.40;101395.47;15548838;28;20145;-49
2023/05/28 15:45:30;;;;;;;0.60;0.47;;;;;;;24.99;22.64;101398.81;15576262;28;20116;-47
2023/05/28 15:53:05;;;;;;;0.75;0.22;;;;;;;25.40;22.79;101398.38;15564340;23;20111;-53
2023/05/28 16:00:39;;;;;;;1.85;0.98;;;;;;;25.20;24.13;101388.47;15673841;28;20521;-53
2023/05/28 16:08:13;;;;;;;1.10;0.30;;;;;;;25.10;23.49;101383.09;15650620;28;20423;-49
2023/05/28 16:15:46;;;;;;;1.20;0.43;;;;;;;24.19;25.23;101380.84;15655557;28;20064;-51
2023/05/28 16:23:21;;;;;;;0.95;0.47;;;;;;;24.01;23.12;101373.31;15669538;28;20045;-49
2023/05/28 16:30:55;;;;;;;1.40;0.75;;;;;;;24.54;23.62;101375.41;15681559;28;20044;-49
2023/05/28 16:38:29;;;;;;;2.63;0.95;;;;;;;24.36;23.21;101374.16;15661373;28;20460;-52
2023/05/28 16:46:03;;;;;;;1.73;0.32;;;;;;;24.74;28.07;101380.69;15684887;28;20053;-54
2023/05/28 16:53:37;;;;;;;0.90;0.50;;;;;;;24.41;26.44;101380.44;15695881;28;20048;-50
2023/05/28 17:01:10;;;;;;;1.50;0.50;;;;;;;23.88;29.00;101373.97;15689812;28;20051;-52
2023/05/28 17:08:44;;;;;;;0.68;0.47;;;;;;;24.12;28.20;101382.31;15684946;28;20072;-55
2023/05/28 17:16:18;;;;;;;1.13;0.50;;;;;;;23.40;29.05;101373.63;15684943;28;20102;-51
2023/05/28 17:23:52;;;;;;;0.98;0.30;;;;;;;23.55;30.35;101379.06;15663864;28;20131;-49
2023/05/28 17:31:25;;;;;;;1.33;0.85;;;;;;;23.30;31.91;101376.41;15693733;28;20040;-49
2023/05/28 17:39:00;;;;;;;1.83;0.55;;;;;;;23.24;33.62;101380.28;15689485;28;20049;-53
2023/05/28 17:46:34;;;;;;;1.90;0.40;;;;;;;23.21;33.91;101380.81;15690882;28;20044;-52
2023/05/28 17:54:08;;;;;;;1.58;0.82;;;;;;;23.27;34.33;101385.19;15685178;28;20045;-53
2023/05/28 18:01:41;;;;;;;0.50;0.50;;;;;;;23.01;34.94;101382.53;15667937;28;20036;-53
2023/05/28 18:09:17;;;;;;;1.13;0.52;;;;;;;22.88;34.89;101392.09;15673063;28;20102;-53
2023/05/28 18:16:50;;;;;;;7.82;0.60;;;;;;;22.80;35.63;101389.94;15663879;28;20049;-52
2023/05/28 18:24:26;;;;;;;0.38;0.30;;;;;;;22.63;36.21;101392.97;15661695;28;20052;-54
2023/05/28 18:31:59;;;;;;;0.47;0.30;;;;;;;22.43;37.30;101390.25;15661503;28;20056;-50
2023/05/28 18:39:33;;;;;;;2.30;0.57;;;;;;;22.44;37.25;101393.81;15689099;28;20075;-52
2023/05/28 18:47:06;;;;;;;0.85;0.60;;;;;;;22.12;38.00;101392.16;15682759;28;20489;-51
2023/05/28 18:54:40;;;;;;;0.70;0.50;;;;;;;21.69;39.10;101401.59;15675355;28;20076;-51
2023/05/28 19:02:12;;;;;;;1.30;0.63;;;;;;;20.47;39.32;101402.50;15660544;28;20044;-53
2023/05/28 19:09:47;;;;;;;1.00;0.47;;;;;;;21.05;39.19;101417.09;15679892;28;20051;-53
2023/05/28 19:17:20;;;;;;;0.80;0.60;;;;;;;20.57;40.84;101418.94;15677062;28;20040;-50
2023/05/28 19:24:58;;;;;;;1.13;0.43;;;;;;;20.33;40.63;101420.31;15674217;28;20128;-51
2023/05/28 19:32:31;;;;;;;0.68;0.30;;;;;;;20.07;40.90;101430.16;15690907;28;20041;-52
2023/05/28 19:40:06;;;;;;;;;;;;;;;19.65;42.18;101440.84;15688449;28;20048;-50
2023/05/28 19:47:38;;;;;;;1.80;0.75;;;;;;;19.14;43.33;101449.13;15679489;28;19959;-51
2023/05/28 19:55:13;;;;;;;2.60;1.50;;;;;;;18.93;44.13;101448.00;15682667;28;20045;-52
2023/05/28 20:02:46;;;;;;;2.25;1.33;;;;;;;18.63;44.60;101448.28;15659568;28;20111;-49
2023/05/28 20:10:20;;;;;;;1.48;1.23;;;;;;;18.40;44.93;101473.72;15660469;28;20048;-51
2023/05/28 20:17:53;;;;;;;2.25;1.45;;;;;;;17.91;46.54;101465.19;15682712;28;20053;-50
2023/05/28 20:25:28;;;;;;;1.20;1.00;;;;;;;17.74;46.64;101469.72;15702572;28;20090;-52
2023/05/28 20:33:01;;;;;;;1.80;1.13;;;;;;;17.50;47.01;101475.16;15691791;28;20072;-51
2023/05/28 20:40:35;;;;;;;3.70;1.00;;;;;;;17.24;47.93;101475.66;15698133;28;20043;-52
2023/05/28 20:48:08;;;;;;;1.30;1.20;;;;;;;16.98;47.73;101482.38;15688952;28;20044;-51
2023/05/28 20:55:42;;;;;;;2.57;1.90;;;;;;;16.80;47.86;101496.88;15674232;28;20084;-52
2023/05/28 21:03:15;;;;;;;5.90;2.22;;;;;;;16.14;49.18;101517.59;15668914;28;20091;-52
2023/05/28 21:10:49;;;;;;;1.02;0.93;;;;;;;16.10;47.60;101521.81;15687021;28;20041;-54
2023/05/28 21:18:22;;;;;;;1.52;0.93;;;;;;;16.47;46.24;101529.84;15667143;28;20237;-50
2023/05/28 21:25:56;;;;;;;1.33;0.83;;;;;;;16.71;46.49;101533.47;15695901;28;20460;-50
2023/05/28 21:33:29;;;;;;;0.68;0.45;;;;;;;16.90;46.66;101545.91;15694686;28;20056;-51
2023/05/28 21:41:03;;;;;;;1.05;0.65;;;;;;;16.74;47.97;101550.13;15677623;28;20047;-52
2023/05/28 21:48:36;;;;;;;1.45;0.70;;;;;;;17.10;48.05;101542.88;15669394;28;20087;-50
2023/05/28 21:56:11;;;;;;;5.27;0.90;;;;;;;16.94;48.47;101551.72;15655838;28;20090;-51
2023/05/28 22:03:43;;;;;;;0.82;0.63;;;;;;;16.45;49.36;101542.78;15675029;28;20300;-51
2023/05/28 22:11:19;;;;;;;1.13;0.40;;;;;;;17.01;48.01;101560.56;15675525;28;20068;-53
2023/05/28 22:18:51;;;;;;;0.50;0.40;;;;;;;16.54;49.05;101554.97;15661317;28;20033;-49
2023/05/28 22:26:27;;;;;;;0.93;0.50;;;;;;;16.86;48.46;101550.16;15678131;28;20560;-50
2023/05/28 22:34:00;;;;;;;0.82;0.50;;;;;;;16.90;48.53;101566.78;15666398;28;20033;-51
2023/05/28 22:41:39;;;;;;;0.95;0.55;;;;;;;16.50;49.23;101570.03;15663344;28;20087;-50
2023/05/28 22:49:13;;;;;;;0.57;0.38;;;;;;;15.82;49.76;101566.47;15662346;28;20037;-50
2023/05/28 22:56:48;;;;;;;0.82;0.35;;;;;;;15.60;49.98;101564.41;15682076;28;20028;-51
2023/05/28 23:04:21;;;;;;;4.05;0.95;;;;;;;16.04;49.14;101558.75;15678324;28;20095;-54
2023/05/28 23:11:56;;;;;;;0.75;0.43;;;;;;;15.69;49.86;101560.38;15659794;28;20063;-51
2023/05/28 23:19:28;;;;;;;1.23;0.43;;;;;;;15.59;49.71;101578.97;15676554;28;20075;-50
2023/05/28 23:27:03;;;;;;;0.63;0.47;;;;;;;15.41;50.24;101580.59;15677985;28;20052;-51
2023/05/28 23:34:36;;;;;;;0.60;0.22;;;;;;;15.17;50.76;101576.84;15686621;28;20056;-50
2023/05/28 23:42:10;;;;;;;1.40;0.63;;;;;;;15.28;50.94;101578.00;15676820;28;20049;-51
2023/05/28 23:49:43;;;;;;;2.75;1.02;;;;;;;15.72;50.30;101574.31;15668935;28;20405;-54
2023/05/28 23:57:18;;;;;;;0.57;0.45;;;;;;;15.45;50.93;101575.56;15672056;28;20051;-52
